Time;durP1;ratioP1;P1;durP2;ratioP2;P2;SDS_P1;SDS_P2;PMS_P1;PMS_P2;Temp;Humidity;BMP_temperature;BMP_pressure;BME280_temperature;BME280_humidity;BME280_pressure;Samples;Min_cycle;Max_cycle;Signal;HPM_P1;HPM_P2
2021/01/17 00:01:35;;;;;;;;;;;;;;;;;;5027187;28;20373;-75
2021/01/17 00:04:01;;;;;;;;;;;;;;;;;;5004307;28;20341;-75
2021/01/17 00:06:27;;;;;;;;;;;;;;;;;;5027235;28;19932;-75
2021/01/17 00:08:53;;;;;;;;;;;;;;;;;;5023184;28;19925;-75
2021/01/17 00:11:19;;;;;;;;;;;;;;;;;;5027115;28;19929;-75
2021/01/17 00:13:45;;;;;;;;;;;;;;;;;;5024933;28;19932;-75
2021/01/17 00:16:11;;;;;;;;;;;;;;;;;;5011041;28;20112;-75
2021/01/17 00:18:37;;;;;;;;;;;;;;;;;;5003636;28;19948;-75
2021/01/17 00:21:03;;;;;;;;;;;;;;;;;;4996376;28;19926;-75
2021/01/17 00:23:29;;;;;;;;;;;;;;;;;;5006976;28;19968;-75
2021/01/17 00:25:55;;;;;;;;;;;;;;;;;;5002472;28;20130;-75
2021/01/17 00:28:21;;;;;;;;;;;;;;;;;;5006923;28;20432;-75
2021/01/17 00:30:47;;;;;;;;;;;;;;;;;;5003766;28;19926;-75
2021/01/17 00:33:13;;;;;;;;;;;;;;;;;;5005942;28;19934;-75
2021/01/17 00:35:39;;;;;;;;;;;;;;;;;;4992994;28;20314;-75
2021/01/17 00:38:05;;;;;;;;;;;;;;;;;;5004988;28;19926;-77
2021/01/17 00:40:31;;;;;;;;;;;;;;;;;;5007094;28;19925;-75
2021/01/17 00:42:57;;;;;;;;;;;;;;;;;;5002628;28;20111;-75
2021/01/17 00:45:23;;;;;;;;;;;;;;;;;;5006663;28;19926;-76
2021/01/17 00:47:49;;;;;;;;;;;;;;;;;;5003647;28;20278;-75
2021/01/17 00:50:15;;;;;;;;;;;;;;;;;;5003227;28;19933;-76
2021/01/17 00:52:41;;;;;;;;;;;;;;;;;;4994336;28;19926;-76
2021/01/17 00:55:07;;;;;;;;;;;;;;;;;;4990722;28;19937;-76
2021/01/17 00:57:33;;;;;;;;;;;;;;;;;;4989278;28;20318;-75
2021/01/17 00:59:59;;;;;;;;;;;;;;;;;;4985945;28;20124;-75
2021/01/17 01:02:25;;;;;;;;;;;;;;;;;;4987082;28;19932;-75
2021/01/17 01:04:51;;;;;;;;;;;;;;;;;;4983263;28;19926;-75
2021/01/17 01:07:17;;;;;;;;;;;;;;;;;;4989758;28;20334;-74
2021/01/17 01:09:43;;;;;;;;;;;;;;;;;;5004134;28;19926;-75
2021/01/17 01:12:09;;;;;;;;;;;;;;;;;;5004140;28;20571;-75
2021/01/17 01:14:35;;;;;;;;;;;;;;;;;;5005750;28;19932;-77
2021/01/17 01:17:01;;;;;;;;;;;;;;;;;;5002994;28;20007;-76
2021/01/17 01:19:27;;;;;;;;;;;;;;;;;;5005979;28;19926;-75
2021/01/17 01:21:53;;;;;;;;;;;;;;;;;;4991428;28;20270;-75
2021/01/17 01:24:19;;;;;;;;;;;;;;;;;;4985883;28;19953;-74
2021/01/17 01:26:45;;;;;;;;;;;;;;;;;;4983414;28;19932;-74
2021/01/17 01:29:11;;;;;;;;;;;;;;;;;;4984566;28;20226;-75
2021/01/17 01:31:36;;;;;;;;;;;;;;;;;;4985293;28;19933;-74
2021/01/17 01:34:02;;;;;;;;;;;;;;;;;;4982648;28;19933;-75
2021/01/17 01:36:28;;;;;;;;;;;;;;;;;;4985557;28;19926;-74
2021/01/17 01:38:54;;;;;;;;;;;;;;;;;;4974172;28;19934;-75
2021/01/17 01:41:20;;;;;;;;;;;;;;;;;;4986083;28;19926;-75
2021/01/17 01:43:46;;;;;;;;;;;;;;;;;;4982942;28;19933;-74
2021/01/17 01:46:12;;;;;;;;;;;;;;;;;;4994923;28;20369;-75
2021/01/17 01:48:38;;;;;;;;;;;;;;;;;;5004269;28;19926;-74
2021/01/17 01:51:04;;;;;;;;;;;;;;;;;;5002709;28;20122;-75
2021/01/17 01:53:30;;;;;;;;;;;;;;;;;;4995185;28;19933;-75
2021/01/17 01:55:55;;;;;;;;;;;;;;;;;;5000987;28;19987;-75
2021/01/17 01:58:21;;;;;;;;;;;;;;;;;;5004993;28;19940;-76
2021/01/17 02:00:47;;;;;;;;;;;;;;;;;;5001814;28;19932;-76
2021/01/17 02:03:13;;;;;;;;;;;;;;;;;;5004420;28;19929;-74
2021/01/17 02:05:39;;;;;;;;;;;;;;;;;;5003313;28;19931;-76
2021/01/17 02:08:05;;;;;;;;;;;;;;;;;;4992051;28;19934;-75
2021/01/17 02:10:31;;;;;;;;;;;;;;;;;;5005195;28;20207;-75
2021/01/17 02:12:57;;;;;;;;;;;;;;;;;;5000764;28;19980;-75
2021/01/17 02:15:23;;;;;;;;;;;;;;;;;;5005157;28;19932;-75
2021/01/17 02:17:49;;;;;;;;;;;;;;;;;;4996533;28;19937;-75
2021/01/17 02:20:15;;;;;;;;;;;;;;;;;;5005332;28;19979;-75
2021/01/17 02:22:41;;;;;;;;;;;;;;;;;;5003713;28;19948;-76
2021/01/17 02:25:07;;;;;;;;;;;;;;;;;;4982514;28;20218;-76
2021/01/17 02:27:34;;;;;;;;;;;;;;;;;;4984485;28;19926;-75
2021/01/17 02:30:00;;;;;;;;;;;;;;;;;;4982094;28;20226;-75
2021/01/17 02:32:25;;;;;;;;;;;;;;;;;;4985565;28;20334;-76
2021/01/17 02:34:52;;;;;;;;;;;;;;;;;;4980543;28;19933;-76
2021/01/17 02:37:18;;;;;;;;;;;;;;;;;;4985648;28;20449;-76
2021/01/17 02:39:43;;;;;;;;;;;;;;;;;;4982000;28;20323;-74
2021/01/17 02:42:09;;;;;;;;;;;;;;;;;;5003527;28;20057;-75
2021/01/17 02:44:35;;;;;;;;;;;;;;;;;;4995841;28;19972;-76
2021/01/17 02:47:01;;;;;;;;;;;;;;;;;;4987215;28;20040;-76
2021/01/17 02:49:27;;;;;;;;;;;;;;;;;;4986735;28;19925;-75
2021/01/17 02:51:53;;;;;;;;;;;;;;;;;;4981317;28;20123;-74
2021/01/17 02:54:19;;;;;;;;;;;;;;;;;;4981444;28;19929;-76
2021/01/17 02:56:45;;;;;;;;;;;;;;;;;;4984595;28;19926;-77
2021/01/17 02:59:11;;;;;;;;;;;;;;;;;;4984325;28;20619;-76
2021/01/17 03:01:37;;;;;;;;;;;;;;;;;;4985088;28;19926;-75
2021/01/17 03:04:03;;;;;;;;;;;;;;;;;;4983559;28;20135;-75
2021/01/17 03:06:29;;;;;;;;;;;;;;;;;;4986397;28;19953;-78
2021/01/17 03:08:55;;;;;;;;;;;;;;;;;;4981534;28;20165;-75
2021/01/17 03:11:21;;;;;;;;;;;;;;;;;;4990535;28;19926;-76
2021/01/17 03:13:47;;;;;;;;;;;;;;;;;;5003337;28;20024;-75
2021/01/17 03:16:15;;;;;;;;;;;;;;;;;;5004497;28;19925;-77
2021/01/17 03:18:41;;;;;;;;;;;;;;;;;;5004615;28;19925;-75
2021/01/17 03:21:07;;;;;;;;;;;;;;;;;;5006223;28;19932;-76
2021/01/17 03:23:33;;;;;;;;;;;;;;;;;;5008381;28;19972;-75
2021/01/17 03:25:59;;;;;;;;;;;;;;;;;;4994748;28;20130;-75
2021/01/17 03:28:25;;;;;;;;;;;;;;;;;;5009468;28;20378;-75
2021/01/17 03:30:51;;;;;;;;;;;;;;;;;;5005790;28;19933;-76
2021/01/17 03:33:17;;;;;;;;;;;;;;;;;;5009404;28;20286;-75
2021/01/17 03:35:43;;;;;;;;;;;;;;;;;;5006791;28;19925;-77
2021/01/17 03:38:09;;;;;;;;;;;;;;;;;;5006910;28;20437;-76
2021/01/17 03:40:35;;;;;;;;;;;;;;;;;;5005902;28;19925;-75
2021/01/17 03:43:01;;;;;;;;;;;;;;;;;;4996121;28;19930;-74
2021/01/17 03:45:27;;;;;;;;;;;;;;;;;;5007812;28;19925;-75
2021/01/17 03:47:53;;;;;;;;;;;;;;;;;;5003915;28;20158;-75
2021/01/17 03:50:19;;;;;;;;;;;;;;;;;;5008469;28;19929;-76
2021/01/17 03:52:45;;;;;;;;;;;;;;;;;;5005521;28;20286;-76
2021/01/17 03:55:11;;;;;;;;;;;;;;;;;;5006866;28;20452;-76
2021/01/17 03:57:37;;;;;;;;;;;;;;;;;;4996490;28;19925;-75
2021/01/17 04:00:03;;;;;;;;;;;;;;;;;;5004852;28;20003;-77
2021/01/17 04:02:29;;;;;;;;;;;;;;;;;;5008346;28;20360;-75
2021/01/17 04:04:55;;;;;;;;;;;;;;;;;;5003054;28;19933;-75
2021/01/17 04:07:21;;;;;;;;;;;;;;;;;;5007896;28;20318;-76
2021/01/17 04:09:47;;;;;;;;;;;;;;;;;;5004597;28;19925;-75
2021/01/17 04:12:13;;;;;;;;;;;;;;;;;;4995023;28;20703;-75
2021/01/17 04:14:39;;;;;;;;;;;;;;;;;;5005734;28;19937;-75
2021/01/17 04:17:05;;;;;;;;;;;;;;;;;;4999275;28;20013;-75
2021/01/17 04:19:31;;;;;;;;;;;;;;;;;;5005482;28;20326;-75
2021/01/17 04:21:57;;;;;;;;;;;;;;;;;;5002729;28;20221;-75
2021/01/17 04:24:23;;;;;;;;;;;;;;;;;;5006878;28;19926;-76
2021/01/17 04:26:49;;;;;;;;;;;;;;;;;;5003515;28;19929;-75
2021/01/17 04:29:15;;;;;;;;;;;;;;;;;;4995134;28;19933;-75
2021/01/17 04:31:41;;;;;;;;;;;;;;;;;;5004739;28;19926;-76
2021/01/17 04:34:07;;;;;;;;;;;;;;;;;;5004878;28;19932;-75
2021/01/17 04:36:33;;;;;;;;;;;;;;;;;;5006670;28;19925;-75
2021/01/17 04:38:59;;;;;;;;;;;;;;;;;;5003137;28;20185;-75
2021/01/17 04:41:25;;;;;;;;;;;;;;;;;;5006633;28;19925;-75
2021/01/17 04:43:51;;;;;;;;;;;;;;;;;;4991794;28;19980;-75
2021/01/17 04:46:17;;;;;;;;;;;;;;;;;;5006253;28;19933;-75
2021/01/17 04:48:43;;;;;;;;;;;;;;;;;;4988319;28;19933;-75
2021/01/17 04:51:09;;;;;;;;;;;;;;;;;;4984573;28;20482;-75
2021/01/17 04:53:35;;;;;;;;;;;;;;;;;;4986380;28;19933;-75
2021/01/17 04:56:01;;;;;;;;;;;;;;;;;;4983500;28;20166;-75
2021/01/17 04:58:27;;;;;;;;;;;;;;;;;;4986743;28;19926;-75
2021/01/17 05:00:53;;;;;;;;;;;;;;;;;;4990889;28;20012;-75
2021/01/17 05:03:19;;;;;;;;;;;;;;;;;;5006521;28;19926;-75
2021/01/17 05:05:45;;;;;;;;;;;;;;;;;;5003572;28;20390;-75
2021/01/17 05:08:11;;;;;;;;;;;;;;;;;;5004909;28;20048;-75
2021/01/17 05:10:37;;;;;;;;;;;;;;;;;;5005215;28;20386;-76
2021/01/17 05:13:03;;;;;;;;;;;;;;;;;;5002182;28;19925;-76
2021/01/17 05:15:29;;;;;;;;;;;;;;;;;;4989653;28;19948;-72
2021/01/17 05:17:55;;;;;;;;;;;;;;;;;;5001706;28;20003;-76
2021/01/17 05:20:20;;;;;;;;;;;;;;;;;;5005475;28;20306;-74
2021/01/17 05:22:46;;;;;;;;;;;;;;;;;;5002560;28;19925;-74
2021/01/17 05:25:12;;;;;;;;;;;;;;;;;;5004274;28;20280;-73
2021/01/17 05:27:38;;;;;;;;;;;;;;;;;;5004607;28;20440;-74
2021/01/17 05:30:04;;;;;;;;;;;;;;;;;;4992076;28;19925;-74
2021/01/17 05:32:31;;;;;;;;;;;;;;;;;;5005520;28;20017;-73
2021/01/17 05:34:57;;;;;;;;;;;;;;;;;;5000972;28;19937;-74
2021/01/17 05:37:23;;;;;;;;;;;;;;;;;;5006095;28;19925;-75
2021/01/17 05:39:49;;;;;;;;;;;;;;;;;;5001922;28;19925;-73
2021/01/17 05:42:15;;;;;;;;;;;;;;;;;;5003957;28;19979;-75
2021/01/17 05:44:41;;;;;;;;;;;;;;;;;;4998794;28;19926;-74
2021/01/17 05:47:07;;;;;;;;;;;;;;;;;;4997693;28;20142;-73
2021/01/17 05:49:33;;;;;;;;;;;;;;;;;;5005052;28;19925;-73
2021/01/17 05:51:59;;;;;;;;;;;;;;;;;;5001273;28;20043;-73
2021/01/17 05:54:25;;;;;;;;;;;;;;;;;;5005112;28;20404;-75
2021/01/17 05:56:51;;;;;;;;;;;;;;;;;;5001211;28;19929;-75
2021/01/17 05:59:17;;;;;;;;;;;;;;;;;;5005002;28;20374;-75
2021/01/17 06:01:43;;;;;;;;;;;;;;;;;;4986041;28;19926;-75
2021/01/17 06:04:09;;;;;;;;;;;;;;;;;;4982345;28;19964;-75
2021/01/17 06:06:35;;;;;;;;;;;;;;;;;;4985144;28;19977;-74
2021/01/17 06:09:01;;;;;;;;;;;;;;;;;;4982003;28;20253;-74
2021/01/17 06:11:27;;;;;;;;;;;;;;;;;;4985549;28;19926;-74
2021/01/17 06:13:53;;;;;;;;;;;;;;;;;;4981224;28;20619;-75
2021/01/17 06:16:19;;;;;;;;;;;;;;;;;;4980845;28;19925;-76
2021/01/17 06:18:45;;;;;;;;;;;;;;;;;;4996215;28;20394;-75
2021/01/17 06:21:11;;;;;;;;;;;;;;;;;;5003871;28;20193;-76
2021/01/17 06:23:37;;;;;;;;;;;;;;;;;;5003787;28;19933;-73
2021/01/17 06:26:03;;;;;;;;;;;;;;;;;;5001814;28;20000;-74
2021/01/17 06:28:29;;;;;;;;;;;;;;;;;;5003557;28;19932;-76
2021/01/17 06:30:55;;;;;;;;;;;;;;;;;;5000819;28;19952;-76
2021/01/17 06:33:21;;;;;;;;;;;;;;;;;;4994757;28;20298;-73
2021/01/17 06:35:47;;;;;;;;;;;;;;;;;;5001442;28;20382;-73
2021/01/17 06:38:13;;;;;;;;;;;;;;;;;;5004009;28;19940;-73
2021/01/17 06:40:39;;;;;;;;;;;;;;;;;;5003127;28;20401;-72
2021/01/17 06:43:05;;;;;;;;;;;;;;;;;;5002982;28;19955;-72
2021/01/17 06:45:31;;;;;;;;;;;;;;;;;;5006253;28;20267;-72
2021/01/17 06:47:57;;;;;;;;;;;;;;;;;;4991088;28;19940;-72
2021/01/17 06:50:23;;;;;;;;;;;;;;;;;;5005048;28;20349;-72
2021/01/17 06:52:49;;;;;;;;;;;;;;;;;;5008985;28;19925;-71
2021/01/17 06:55:15;;;;;;;;;;;;;;;;;;5009970;28;19976;-72
2021/01/17 06:57:41;;;;;;;;;;;;;;;;;;5013393;28;20290;-75
2021/01/17 07:00:07;;;;;;;;;;;;;;;;;;5014061;28;19952;-75
2021/01/17 07:02:33;;;;;;;;;;;;;;;;;;5005968;28;20464;-75
2021/01/17 07:04:59;;;;;;;;;;;;;;;;;;5003311;28;19934;-74
2021/01/17 07:07:25;;;;;;;;;;;;;;;;;;4989226;28;20294;-73
2021/01/17 07:09:51;;;;;;;;;;;;;;;;;;4983647;28;19929;-74
2021/01/17 07:12:17;;;;;;;;;;;;;;;;;;4988697;28;19933;-75
2021/01/17 07:14:43;;;;;;;;;;;;;;;;;;4986472;28;19941;-74
2021/01/17 07:17:09;;;;;;;;;;;;;;;;;;4984152;28;20063;-75
2021/01/17 07:19:35;;;;;;;;;;;;;;;;;;5007495;28;19932;-75
2021/01/17 07:22:01;;;;;;;;;;;;;;;;;;5004571;28;19952;-75
2021/01/17 07:24:27;;;;;;;;;;;;;;;;;;5007909;28;19932;-75
2021/01/17 07:26:53;;;;;;;;;;;;;;;;;;5003723;28;20449;-74
2021/01/17 07:29:19;;;;;;;;;;;;;;;;;;5005347;28;19936;-74
2021/01/17 07:31:46;;;;;;;;;;;;;;;;;;4995331;28;19959;-74
2021/01/17 07:34:12;;;;;;;;;;;;;;;;;;4995751;28;20322;-75
2021/01/17 07:36:38;;;;;;;;;;;;;;;;;;5006246;28;19932;-74
2021/01/17 07:39:04;;;;;;;;;;;;;;;;;;5004864;28;20306;-74
2021/01/17 07:41:30;;;;;;;;;;;;;;;;;;5007960;28;19937;-75
2021/01/17 07:43:55;;;;;;;;;;;;;;;;;;5003384;28;20445;-74
2021/01/17 07:46:21;;;;;;;;;;;;;;;;;;5007629;28;19941;-78
2021/01/17 07:48:48;;;;;;;;;;;;;;;;;;4994512;28;20394;-78
2021/01/17 07:51:13;;;;;;;;;;;;;;;;;;4988306;28;20030;-74
2021/01/17 07:53:39;;;;;;;;;;;;;;;;;;4991541;28;19934;-73
2021/01/17 07:56:05;;;;;;;;;;;;;;;;;;4985060;28;20119;-71
2021/01/17 07:58:31;;;;;;;;;;;;;;;;;;4988302;28;19933;-78
2021/01/17 08:00:57;;;;;;;;;;;;;;;;;;4989414;28;19963;-77
2021/01/17 08:03:23;;;;;;;;;;;;;;;;;;5006323;28;20294;-76
2021/01/17 08:05:49;;;;;;;;;;;;;;;;;;4993808;28;19988;-80
2021/01/17 08:08:15;;;;;;;;;;;;;;;;;;5020674;28;19964;-78
2021/01/17 08:10:41;;;;;;;;;;;;;;;;;;5018880;28;19926;-79
2021/01/17 08:13:07;;;;;;;;;;;;;;;;;;5008649;28;20582;-73
2021/01/17 08:15:33;;;;;;;;;;;;;;;;;;5010974;28;19926;-78
2021/01/17 08:17:59;;;;;;;;;;;;;;;;;;5004578;28;20421;-77
2021/01/17 08:20:27;;;;;;;;;;;;;;;;;;4996988;28;19972;-77
2021/01/17 08:22:53;;;;;;;;;;;;;;;;;;4990293;28;20155;-80
2021/01/17 08:25:19;;;;;;;;;;;;;;;;;;5004015;28;19909;-77
2021/01/17 08:27:45;;;;;;;;;;;;;;;;;;4993092;28;19932;-78
2021/01/17 08:30:11;;;;;;;;;;;;;;;;;;5000832;28;20242;-78
2021/01/17 08:32:37;;;;;;;;;;;;;;;;;;4993117;28;20409;-78
2021/01/17 08:35:03;;;;;;;;;;;;;;;;;;4978867;28;23782;-79
2021/01/17 08:37:29;;;;;;;;;;;;;;;;;;5007325;28;19933;-78
2021/01/17 08:39:55;;;;;;;;;;;;;;;;;;5004113;28;19969;-77
2021/01/17 08:42:21;;;;;;;;;;;;;;;;;;5007536;28;19925;-78
2021/01/17 08:44:47;;;;;;;;;;;;;;;;;;5004384;28;19933;-78
2021/01/17 08:47:13;;;;;;;;;;;;;;;;;;5006179;28;19926;-77
2021/01/17 08:49:39;;;;;;;;;;;;;;;;;;4991548;28;19926;-78
2021/01/17 08:52:05;;;;;;;;;;;;;;;;;;4986969;28;19925;-79
2021/01/17 08:54:31;;;;;;;;;;;;;;;;;;5008931;28;19930;-78
2021/01/17 08:56:57;;;;;;;;;;;;;;;;;;5002852;28;20047;-79
2021/01/17 08:59:23;;;;;;;;;;;;;;;;;;5006849;28;19925;-78
2021/01/17 09:01:49;;;;;;;;;;;;;;;;;;5003591;28;19951;-76
2021/01/17 09:04:15;;;;;;;;;;;;;;;;;;5011414;28;20302;-80
2021/01/17 09:06:41;;;;;;;;;;;;;;;;;;5006130;28;19929;-77
2021/01/17 09:09:07;;;;;;;;;;;;;;;;;;4998069;28;19925;-80
2021/01/17 09:11:37;;;;;;;;;;;;;;;;;;4989122;28;20456;-77
2021/01/17 09:14:03;;;;;;;;;;;;;;;;;;4995990;28;19933;-78
2021/01/17 09:16:29;;;;;;;;;;;;;;;;;;5002470;28;19918;-82
2021/01/17 09:18:55;;;;;;;;;;;;;;;;;;5000072;28;20624;-75
2021/01/17 09:21:21;;;;;;;;;;;;;;;;;;5020333;28;19930;-73
2021/01/17 09:23:46;;;;;;;;;;;;;;;;;;4982889;28;19930;-77
2021/01/17 09:26:12;;;;;;;;;;;;;;;;;;5002822;28;19925;-82
2021/01/17 09:28:38;;;;;;;;;;;;;;;;;;5001606;28;19980;-82
2021/01/17 09:31:04;;;;;;;;;;;;;;;;;;5007105;28;19926;-80
2021/01/17 09:33:35;;;;;;;;;;;;;;;;;;5006187;28;19929;-82
2021/01/17 09:36:01;;;;;;;;;;;;;;;;;;5002480;28;19952;-80
2021/01/17 09:38:30;;;;;;;;;;;;;;;;;;5011056;28;20367;-78
2021/01/17 09:40:57;;;;;;;;;;;;;;;;;;5002453;28;19936;-80
2021/01/17 09:43:22;;;;;;;;;;;;;;;;;;5011697;28;19910;-83
2021/01/17 09:45:48;;;;;;;;;;;;;;;;;;5009040;28;19926;-79
2021/01/17 09:48:14;;;;;;;;;;;;;;;;;;4993144;28;19925;-77
2021/01/17 09:50:40;;;;;;;;;;;;;;;;;;4985656;28;19930;-77
2021/01/17 09:53:06;;;;;;;;;;;;;;;;;;4979987;28;20205;-77
2021/01/17 09:55:32;;;;;;;;;;;;;;;;;;5005398;28;19933;-77
2021/01/17 09:57:58;;;;;;;;;;;;;;;;;;5004377;28;20130;-77
2021/01/17 10:00:24;;;;;;;;;;;;;;;;;;5024383;28;19925;-79
2021/01/17 10:02:50;;;;;;;;;;;;;;;;;;5007476;28;19929;-77
2021/01/17 10:05:16;;;;;;;;;;;;;;;;;;5007476;28;19925;-79
2021/01/17 10:07:42;;;;;;;;;;;;;;;;;;5001118;28;20379;-79
2021/01/17 10:10:07;;;;;;;;;;;;;;;;;;4999436;28;19926;-76
2021/01/17 10:12:33;;;;;;;;;;;;;;;;;;5004327;28;20377;-76
2021/01/17 10:14:59;;;;;;;;;;;;;;;;;;5004782;28;20160;-78
2021/01/17 10:17:25;;;;;;;;;;;;;;;;;;5022603;28;19926;-82
2021/01/17 10:19:51;;;;;;;;;;;;;;;;;;5026282;28;19910;-82
2021/01/17 10:22:17;;;;;;;;;;;;;;;;;;5033360;28;19925;-81
2021/01/17 10:24:43;;;;;;;;;;;;;;;;;;5019684;28;19926;-80
2021/01/17 10:27:09;;;;;;;;;;;;;;;;;;5030281;28;19926;-82
2021/01/17 10:29:35;;;;;;;;;;;;;;;;;;5033990;28;19925;-79
2021/01/17 10:32:00;;;;;;;;;;;;;;;;;;5021119;28;20214;-80
2021/01/17 10:34:26;;;;;;;;;;;;;;;;;;4996588;28;19926;-79
2021/01/17 10:36:52;;;;;;;;;;;;;;;;;;4991429;28;20299;-79
2021/01/17 10:39:18;;;;;;;;;;;;;;;;;;4994920;28;19963;-81
2021/01/17 10:41:44;;;;;;;;;;;;;;;;;;5003508;28;19932;-80
2021/01/17 10:44:10;;;;;;;;;;;;;;;;;;5001534;28;20147;-80
2021/01/17 10:46:36;;;;;;;;;;;;;;;;;;5004070;28;19948;-81
2021/01/17 10:49:02;;;;;;;;;;;;;;;;;;5009307;28;20229;-80
2021/01/17 10:51:28;;;;;;;;;;;;;;;;;;5001646;28;20390;-81
2021/01/17 10:53:53;;;;;;;;;;;;;;;;;;4994623;28;20238;-79
2021/01/17 10:56:19;;;;;;;;;;;;;;;;;;5003023;28;19980;-79
2021/01/17 10:58:45;;;;;;;;;;;;;;;;;;5016337;28;19940;-79
2021/01/17 11:01:11;;;;;;;;;;;;;;;;;;5017062;28;19925;-79
2021/01/17 11:03:37;;;;;;;;;;;;;;;;;;5017110;28;19926;-79
2021/01/17 11:06:03;;;;;;;;;;;;;;;;;;5018683;28;19948;-80
2021/01/17 11:08:29;;;;;;;;;;;;;;;;;;5022463;28;19961;-79
2021/01/17 11:10:55;;;;;;;;;;;;;;;;;;5009705;28;20260;-79
2021/01/17 11:13:20;;;;;;;;;;;;;;;;;;5024090;28;20314;-80
2021/01/17 11:15:46;;;;;;;;;;;;;;;;;;5020516;28;19930;-81
2021/01/17 11:18:13;;;;;;;;;;;;;;;;;;5022754;28;19952;-79
2021/01/17 11:20:39;;;;;;;;;;;;;;;;;;5021557;28;20390;-79
2021/01/17 11:23:05;;;;;;;;;;;;;;;;;;5019607;28;20032;-79
2021/01/17 11:25:30;;;;;;;;;;;;;;;;;;5020610;28;19937;-79
2021/01/17 11:27:57;;;;;;;;;;;;;;;;;;5097639;22;19942;-79
2021/01/17 11:30:22;;;;;;;;;;;;;;;;;;5082505;28;19977;-81
2021/01/17 11:32:48;;;;;;;;;;;;;;;;;;5067888;28;20296;-77
2021/01/17 11:35:14;;;;;;;;;;;;;;;;;;5068460;28;19955;-77
2021/01/17 11:37:40;;;;;;;;;;;;;;;;;;5068605;28;19925;-77
2021/01/17 11:40:06;;;;;;;;;;;;;;;;;;5064145;28;20137;-76
2021/01/17 11:42:32;;;;;;;;;;;;;;;;;;5058360;28;20342;-78
2021/01/17 11:44:58;;;;;;;;;;;;;;;;;;5063486;28;20084;-77
2021/01/17 11:47:24;;;;;;;;;;;;;;;;;;5067201;28;19932;-77
2021/01/17 11:49:53;;;;;;;;;;;;;;;;;;5062996;28;19924;-77
2021/01/17 11:52:19;;;;;;;;;;;;;;;;;;5067378;28;19928;-78
2021/01/17 11:54:45;;;;;;;;;;;;;;;;;;5063892;28;19947;-77
2021/01/17 11:57:11;;;;;;;;;;;;;;;;;;5051796;28;19933;-76
2021/01/17 11:59:37;;;;;;;;;;;;;;;;;;5061423;28;19924;-76
2021/01/17 12:02:03;;;;;;;;;;;;;;;;;;5063872;28;20147;-77
2021/01/17 12:04:29;;;;;;;;;;;;;;;;;;5066866;28;19932;-77
2021/01/17 12:06:55;;;;;;;;;;;;;;;;;;5062359;28;19924;-77
2021/01/17 12:09:21;;;;;;;;;;;;;;;;;;5066718;28;20304;-76
2021/01/17 12:11:47;;;;;;;;;;;;;;;;;;5055431;28;19928;-77
2021/01/17 12:14:12;;;;;;;;;;;;;;;;;;5043921;28;20311;-78
2021/01/17 12:16:38;;;;;;;;;;;;;;;;;;5046791;28;19975;-77
2021/01/17 12:19:04;;;;;;;;;;;;;;;;;;5056190;28;20101;-78
2021/01/17 12:21:30;;;;;;;;;;;;;;;;;;5067848;28;19932;-78
2021/01/17 12:23:56;;;;;;;;;;;;;;;;;;5062687;28;19986;-77
2021/01/17 12:26:22;;;;;;;;;;;;;;;;;;5067603;28;20262;-78
2021/01/17 12:28:48;;;;;;;;;;;;;;;;;;5052095;28;19924;-79
2021/01/17 12:31:14;;;;;;;;;;;;;;;;;;5067114;28;19929;-78
2021/01/17 12:33:40;;;;;;;;;;;;;;;;;;5064255;28;19931;-77
2021/01/17 12:36:06;;;;;;;;;;;;;;;;;;5063636;28;20273;-77
2021/01/17 12:38:32;;;;;;;;;;;;;;;;;;5066338;28;19939;-77
2021/01/17 12:40:58;;;;;;;;;;;;;;;;;;5062778;28;19925;-78
2021/01/17 12:43:24;;;;;;;;;;;;;;;;;;5066743;28;19925;-78
2021/01/17 12:45:50;;;;;;;;;;;;;;;;;;5051453;28;19929;-77
2021/01/17 12:48:16;;;;;;;;;;;;;;;;;;5074785;28;20053;-79
2021/01/17 12:50:41;;;;;;;;;;;;;;;;;;5066545;28;19932;-78
2021/01/17 12:53:07;;;;;;;;;;;;;;;;;;5066264;28;19925;-77
2021/01/17 12:55:33;;;;;;;;;;;;;;;;;;5079865;28;19932;-77
2021/01/17 12:58:00;;;;;;;;;;;;;;;;;;5075110;28;20031;-77
2021/01/17 13:00:26;;;;;;;;;;;;;;;;;;5061846;28;19947;-77
2021/01/17 13:02:52;;;;;;;;;;;;;;;;;;5068799;28;19931;-76
2021/01/17 13:05:18;;;;;;;;;;;;;;;;;;5071790;28;19924;-77
2021/01/17 13:07:43;;;;;;;;;;;;;;;;;;5069162;28;19924;-77
2021/01/17 13:10:09;;;;;;;;;;;;;;;;;;5066631;28;19932;-77
2021/01/17 13:12:35;;;;;;;;;;;;;;;;;;5066490;28;20289;-77
2021/01/17 13:15:01;;;;;;;;;;;;;;;;;;5042412;28;20430;-76
2021/01/17 13:17:31;;;;;;;;;;;;;;;;;;5046289;28;19924;-77
2021/01/17 13:19:56;;;;;;;;;;;;;;;;;;5041847;28;20290;-77
2021/01/17 13:22:22;;;;;;;;;;;;;;;;;;5045715;28;19925;-76
2021/01/17 13:24:49;;;;;;;;;;;;;;;;;;5041982;28;19924;-76
2021/01/17 13:27:15;;;;;;;;;;;;;;;;;;5045454;28;19924;-77
2021/01/17 13:29:41;;;;;;;;;;;;;;;;;;5050863;28;19932;-76
2021/01/17 13:32:07;;;;;;;;;;;;;;;;;;5044676;28;20043;-77
2021/01/17 13:34:33;;;;;;;;;;;;;;;;;;5045166;28;19925;-77
2021/01/17 13:36:59;;;;;;;;;;;;;;;;;;5041374;28;20183;-77
2021/01/17 13:39:25;;;;;;;;;;;;;;;;;;5045130;28;19924;-77
2021/01/17 13:41:50;;;;;;;;;;;;;;;;;;5041195;28;20267;-77
2021/01/17 13:44:16;;;;;;;;;;;;;;;;;;5045480;28;19925;-77
2021/01/17 13:46:42;;;;;;;;;;;;;;;;;;5036072;28;20378;-77
2021/01/17 13:49:08;;;;;;;;;;;;;;;;;;5042931;28;19928;-77
2021/01/17 13:51:34;;;;;;;;;;;;;;;;;;5044572;28;19924;-77
2021/01/17 13:54:00;;;;;;;;;;;;;;;;;;5041276;28;20561;-78
2021/01/17 13:56:26;;;;;;;;;;;;;;;;;;5044899;28;19925;-77
2021/01/17 13:58:52;;;;;;;;;;;;;;;;;;5051333;28;20269;-78
2021/01/17 14:01:18;;;;;;;;;;;;;;;;;;5051631;28;19929;-77
2021/01/17 14:03:43;;;;;;;;;;;;;;;;;;5060089;28;20392;-78
2021/01/17 14:06:09;;;;;;;;;;;;;;;;;;5063588;28;19936;-77
2021/01/17 14:08:35;;;;;;;;;;;;;;;;;;5064490;28;19924;-77
2021/01/17 14:11:01;;;;;;;;;;;;;;;;;;5061566;28;19951;-77
2021/01/17 14:13:27;;;;;;;;;;;;;;;;;;5064901;28;20315;-77
2021/01/17 14:15:53;;;;;;;;;;;;;;;;;;5050757;28;20432;-77
2021/01/17 14:18:19;;;;;;;;;;;;;;;;;;5046512;28;19925;-78
2021/01/17 14:20:45;;;;;;;;;;;;;;;;;;5043289;28;19974;-77
2021/01/17 14:23:11;;;;;;;;;;;;;;;;;;5043738;28;19989;-77
2021/01/17 14:25:37;;;;;;;;;;;;;;;;;;5043574;28;20328;-78
2021/01/17 14:28:03;;;;;;;;;;;;;;;;;;5053035;28;19932;-78
2021/01/17 14:30:29;;;;;;;;;;;;;;;;;;5064537;28;19955;-78
2021/01/17 14:32:55;;;;;;;;;;;;;;;;;;5034523;28;19925;-78
2021/01/17 14:35:22;;;;;;;;;;;;;;;;;;5044581;28;19924;-78
2021/01/17 14:37:48;;;;;;;;;;;;;;;;;;5040908;28;19929;-77
2021/01/17 14:40:13;;;;;;;;;;;;;;;;;;5043911;28;19982;-78
2021/01/17 14:42:41;;;;;;;;;;;;;;;;;;5044018;28;19952;-77
2021/01/17 14:45:07;;;;;;;;;;;;;;;;;;5042677;28;20205;-76
2021/01/17 14:47:33;;;;;;;;;;;;;;;;;;5039822;28;19957;-77
2021/01/17 14:49:59;;;;;;;;;;;;;;;;;;5040787;28;20150;-77
2021/01/17 14:52:25;;;;;;;;;;;;;;;;;;5062208;28;19925;-77
2021/01/17 14:54:51;;;;;;;;;;;;;;;;;;5060555;28;19994;-78
2021/01/17 14:57:17;;;;;;;;;;;;;;;;;;5063747;28;19929;-77
2021/01/17 14:59:43;;;;;;;;;;;;;;;;;;5045356;28;19931;-78
2021/01/17 15:02:09;;;;;;;;;;;;;;;;;;5042205;28;20429;-78
2021/01/17 15:04:35;;;;;;;;;;;;;;;;;;5034990;28;20282;-78
2021/01/17 15:07:01;;;;;;;;;;;;;;;;;;5040645;28;19936;-76
2021/01/17 15:09:26;;;;;;;;;;;;;;;;;;5044244;28;19971;-77
2021/01/17 15:11:53;;;;;;;;;;;;;;;;;;5040524;28;20250;-77
2021/01/17 15:14:18;;;;;;;;;;;;;;;;;;5044738;28;19924;-77
2021/01/17 15:16:44;;;;;;;;;;;;;;;;;;5045066;28;19932;-76
2021/01/17 15:19:10;;;;;;;;;;;;;;;;;;5042975;28;20015;-76
2021/01/17 15:21:36;;;;;;;;;;;;;;;;;;5060758;28;20282;-77
2021/01/17 15:24:02;;;;;;;;;;;;;;;;;;5064498;28;19982;-77
2021/01/17 15:26:28;;;;;;;;;;;;;;;;;;5067474;28;20292;-76
2021/01/17 15:28:54;;;;;;;;;;;;;;;;;;5063194;28;19925;-76
2021/01/17 15:31:20;;;;;;;;;;;;;;;;;;5067587;28;19928;-77
2021/01/17 15:33:45;;;;;;;;;;;;;;;;;;5064907;28;19928;-75
2021/01/17 15:36:11;;;;;;;;;;;;;;;;;;5044561;28;19936;-76
2021/01/17 15:38:37;;;;;;;;;;;;;;;;;;5046390;28;19925;-75
2021/01/17 15:41:03;;;;;;;;;;;;;;;;;;5044353;28;20118;-76
2021/01/17 15:43:29;;;;;;;;;;;;;;;;;;5047817;28;19924;-76
2021/01/17 15:45:55;;;;;;;;;;;;;;;;;;5044137;28;19935;-77
2021/01/17 15:48:21;;;;;;;;;;;;;;;;;;5048001;28;19948;-76
2021/01/17 15:50:47;;;;;;;;;;;;;;;;;;5037988;28;20256;-76
2021/01/17 15:53:13;;;;;;;;;;;;;;;;;;5062746;28;20522;-77
2021/01/17 15:55:39;;;;;;;;;;;;;;;;;;5065459;28;19924;-76
2021/01/17 15:58:05;;;;;;;;;;;;;;;;;;5060766;28;19990;-77
2021/01/17 16:00:31;;;;;;;;;;;;;;;;;;5046883;28;19933;-76
2021/01/17 16:02:57;;;;;;;;;;;;;;;;;;5042549;28;19951;-76
2021/01/17 16:05:23;;;;;;;;;;;;;;;;;;5046715;28;20271;-75
2021/01/17 16:07:49;;;;;;;;;;;;;;;;;;5040569;28;19932;-77
2021/01/17 16:10:15;;;;;;;;;;;;;;;;;;5046594;28;20330;-76
2021/01/17 16:12:41;;;;;;;;;;;;;;;;;;5044796;28;20385;-76
2021/01/17 16:15:07;;;;;;;;;;;;;;;;;;5044686;28;20148;-75
2021/01/17 16:17:33;;;;;;;;;;;;;;;;;;5048361;28;19924;-76
2021/01/17 16:19:59;;;;;;;;;;;;;;;;;;5043642;28;20148;-76
2021/01/17 16:22:25;;;;;;;;;;;;;;;;;;5038605;28;20375;-76
2021/01/17 16:24:50;;;;;;;;;;;;;;;;;;5050324;28;19924;-75
2021/01/17 16:27:18;;;;;;;;;;;;;;;;;;5066069;28;20456;-75
2021/01/17 16:29:44;;;;;;;;;;;;;;;;;;5063965;28;20297;-76
2021/01/17 16:32:10;;;;;;;;;;;;;;;;;;5065758;28;19929;-76
2021/01/17 16:34:35;;;;;;;;;;;;;;;;;;5066529;28;20281;-75
2021/01/17 16:37:01;;;;;;;;;;;;;;;;;;5063175;28;20126;-75